createdAt,value
2024-01-31T00:00:52.301Z,1.95
2024-01-31T00:03:52.273Z,1
2024-01-31T00:06:52.276Z,1.7
2024-01-31T00:09:52.256Z,1.15
2024-01-31T00:12:52.277Z,0.75
2024-01-31T00:15:52.362Z,1.2
2024-01-31T00:18:52.345Z,0.3
2024-01-31T00:21:52.234Z,0.55
2024-01-31T00:24:52.249Z,1.45
2024-01-31T00:27:52.321Z,1.15
2024-01-31T00:30:52.261Z,1.95
2024-01-31T00:33:52.336Z,1.8
2024-01-31T00:36:52.269Z,1.45
2024-01-31T00:39:52.420Z,1.15
2024-01-31T00:42:52.290Z,1.3
2024-01-31T00:45:52.390Z,1.4
2024-01-31T00:48:52.382Z,1.55
2024-01-31T00:51:52.277Z,1.6
2024-01-31T00:54:52.269Z,1.8
2024-01-31T00:57:52.296Z,1.45
2024-01-31T01:00:52.432Z,1.15
2024-01-31T01:03:52.474Z,1.75
2024-01-31T01:06:52.386Z,1.7
2024-01-31T01:09:52.310Z,1.15
2024-01-31T01:12:52.328Z,0.9
2024-01-31T01:15:52.322Z,1.1
2024-01-31T01:18:52.337Z,1.55
2024-01-31T01:21:52.325Z,1.55
2024-01-31T01:24:52.328Z,1.65
2024-01-31T01:27:52.639Z,0.9
2024-01-31T01:30:52.382Z,0.85
2024-01-31T01:33:52.459Z,0.75
2024-01-31T01:36:52.370Z,1.2
2024-01-31T01:39:52.315Z,0.8
2024-01-31T01:42:52.314Z,0.75
2024-01-31T01:45:52.353Z,0.65
2024-01-31T01:48:52.469Z,0.9
2024-01-31T01:51:52.389Z,0.65
2024-01-31T01:54:52.323Z,0.5
2024-01-31T01:57:52.379Z,0.65
2024-01-31T02:00:52.463Z,0.25
2024-01-31T02:03:52.429Z,0.45
2024-01-31T02:06:52.397Z,0.25
2024-01-31T02:09:52.428Z,0.3
2024-01-31T02:12:52.300Z,0.3
2024-01-31T02:15:52.449Z,0.3
2024-01-31T02:18:52.541Z,0.55
2024-01-31T02:21:52.465Z,0.45
2024-01-31T02:24:52.398Z,0.6
2024-01-31T02:27:52.336Z,0.25
2024-01-31T02:30:52.388Z,0.5
2024-01-31T02:33:52.384Z,0.45
2024-01-31T02:36:52.385Z,0.95
2024-01-31T02:39:52.403Z,0.65
2024-01-31T02:42:52.428Z,0.9
2024-01-31T02:45:52.416Z,0.5
2024-01-31T02:48:52.530Z,0.65
2024-01-31T02:51:52.414Z,0.2
2024-01-31T02:54:52.558Z,1.05
2024-01-31T02:57:52.369Z,1.7
2024-01-31T03:00:52.416Z,0.9
2024-01-31T03:03:52.388Z,0.8
2024-01-31T03:06:52.734Z,0.8
2024-01-31T03:09:52.449Z,0.55
2024-01-31T03:12:52.452Z,0.7
2024-01-31T03:15:52.407Z,0.9
2024-01-31T03:18:52.487Z,1.05
2024-01-31T03:21:52.397Z,0.65
2024-01-31T03:24:52.463Z,0.7
2024-01-31T03:27:52.443Z,0.5
2024-01-31T03:30:52.427Z,0.35
2024-01-31T03:33:52.663Z,1.05
2024-01-31T03:36:52.472Z,0.4
2024-01-31T03:39:52.374Z,0.25
2024-01-31T03:42:52.441Z,0.9
2024-01-31T03:45:52.500Z,0.9
2024-01-31T03:48:52.516Z,0.85
2024-01-31T03:51:52.431Z,0.45
2024-01-31T03:54:52.473Z,1.2
2024-01-31T03:57:52.516Z,0.55
2024-01-31T04:00:52.449Z,0.5
2024-01-31T04:03:52.538Z,0.55
2024-01-31T04:06:52.387Z,0.55
2024-01-31T04:09:52.489Z,0.5
2024-01-31T04:12:52.448Z,1.35
2024-01-31T04:15:52.477Z,0.6
2024-01-31T04:18:52.580Z,0.65
2024-01-31T04:21:52.435Z,1.2
2024-01-31T04:24:52.497Z,1.45
2024-01-31T04:27:52.494Z,1.65
2024-01-31T04:30:52.465Z,0.8
2024-01-31T04:33:52.837Z,1.35
2024-01-31T04:36:52.582Z,0.9
2024-01-31T04:39:52.431Z,1.45
2024-01-31T04:42:55.922Z,1.7
2024-01-31T04:45:52.565Z,1.6
2024-01-31T04:48:52.917Z,1.55
2024-01-31T04:51:52.603Z,1.7
2024-01-31T04:54:52.551Z,1.9
2024-01-31T04:57:52.539Z,1.55
2024-01-31T05:00:52.540Z,2.45
2024-01-31T05:03:52.637Z,1.6
2024-01-31T05:06:52.567Z,1.4
2024-01-31T05:09:52.604Z,1.9
2024-01-31T05:12:52.582Z,1.3
2024-01-31T05:15:52.566Z,0.95
2024-01-31T05:18:52.665Z,1
2024-01-31T05:21:52.605Z,1.1
2024-01-31T05:24:52.575Z,1.5
2024-01-31T05:27:52.591Z,1.25
2024-01-31T05:30:52.582Z,1.55
2024-01-31T05:33:52.604Z,1.05
2024-01-31T05:36:52.509Z,1
2024-01-31T05:39:52.590Z,1.65
2024-01-31T05:42:55.084Z,1.6
2024-01-31T05:45:52.603Z,1.15
2024-01-31T05:48:52.630Z,1.1
2024-01-31T05:51:52.745Z,1.5
2024-01-31T05:54:52.592Z,1.35
2024-01-31T05:57:52.525Z,1.15
2024-01-31T06:00:52.595Z,1.55
2024-01-31T06:03:52.708Z,0.9
2024-01-31T06:06:52.588Z,1.25
2024-01-31T06:09:52.652Z,1.35
2024-01-31T06:12:52.612Z,1.1
2024-01-31T06:15:52.584Z,1.45
2024-01-31T06:18:52.600Z,0.9
2024-01-31T06:21:52.654Z,0.6
2024-01-31T06:24:52.596Z,0.9
2024-01-31T06:27:52.545Z,1.05
2024-01-31T06:30:52.677Z,1.75
2024-01-31T06:33:52.681Z,0.75
2024-01-31T06:36:53.794Z,0.85
2024-01-31T06:39:52.597Z,0.85
2024-01-31T06:42:52.585Z,0.7
2024-01-31T06:45:52.620Z,0.7
2024-01-31T06:48:52.674Z,0.55
2024-01-31T06:51:52.630Z,0.6
2024-01-31T06:54:52.664Z,1.3
2024-01-31T06:57:52.624Z,0.55
2024-01-31T07:00:52.688Z,0.5
2024-01-31T07:03:52.711Z,0.85
2024-01-31T07:06:52.838Z,0.9
2024-01-31T07:09:52.616Z,0.45
2024-01-31T07:12:52.783Z,0.5
2024-01-31T07:15:52.591Z,0.65
2024-01-31T07:18:52.899Z,0.45
2024-01-31T07:21:52.665Z,1.1
2024-01-31T07:24:52.691Z,0.9
2024-01-31T07:27:52.604Z,0.75
2024-01-31T07:30:52.668Z,0.4
2024-01-31T07:33:53.793Z,0.45
2024-01-31T07:36:52.684Z,0.4
2024-01-31T07:39:52.631Z,0.65
2024-01-31T07:42:52.644Z,0.8
2024-01-31T07:45:52.710Z,0.8
2024-01-31T07:48:52.683Z,0.7
2024-01-31T07:51:52.755Z,0.45
2024-01-31T07:54:52.633Z,1.15
2024-01-31T07:57:55.257Z,1.2
2024-01-31T08:00:52.712Z,1.1
2024-01-31T08:03:55.884Z,0.7
2024-01-31T08:06:55.780Z,0.85
2024-01-31T08:09:52.674Z,1
2024-01-31T08:12:52.734Z,1.4
2024-01-31T08:15:52.698Z,1.45
2024-01-31T08:18:52.717Z,1.45
2024-01-31T08:21:52.687Z,0.6
2024-01-31T08:24:57.102Z,0.95
2024-01-31T08:27:52.752Z,0.55
2024-01-31T08:30:52.712Z,0.8
2024-01-31T08:33:52.910Z,0.7
2024-01-31T08:36:52.724Z,0.45
2024-01-31T08:39:52.706Z,0.35
2024-01-31T08:42:52.664Z,0.1
2024-01-31T08:45:52.646Z,0.1
2024-01-31T08:48:52.959Z,0.4
2024-01-31T08:51:52.729Z,0.35
2024-01-31T08:54:52.746Z,0.15
2024-01-31T08:57:52.721Z,0.3
2024-01-31T09:00:52.827Z,0.25
2024-01-31T09:03:52.734Z,0.1
2024-01-31T09:06:52.835Z,0.15
2024-01-31T09:09:52.772Z,0.1
2024-01-31T09:12:52.672Z,0.1
2024-01-31T09:15:52.696Z,0
2024-01-31T09:18:53.017Z,0.05
2024-01-31T09:21:52.751Z,0.05
2024-01-31T09:24:55.198Z,0.65
2024-01-31T09:27:52.771Z,0.7
2024-01-31T09:30:52.731Z,0.4
2024-01-31T09:33:52.982Z,0.5
2024-01-31T09:36:54.090Z,0.25
2024-01-31T09:39:52.780Z,0.25
2024-01-31T09:42:52.761Z,0.15
2024-01-31T09:45:52.749Z,0.25
2024-01-31T09:48:53.046Z,0.1
2024-01-31T09:51:52.844Z,0.15
2024-01-31T09:54:52.796Z,0.9
2024-01-31T09:57:52.855Z,1.15
2024-01-31T10:00:58.166Z,1.1
2024-01-31T10:03:53.017Z,0.75
2024-01-31T10:06:53.141Z,1.2
2024-01-31T10:09:52.825Z,0.75
2024-01-31T10:12:52.883Z,1.2
2024-01-31T10:15:52.932Z,1.15
2024-01-31T10:18:52.897Z,0.95
2024-01-31T10:21:52.870Z,0.85
2024-01-31T10:24:53.175Z,1.1
2024-01-31T10:27:52.848Z,1.2
2024-01-31T10:30:53.037Z,0.95
2024-01-31T10:33:52.923Z,0.7
2024-01-31T10:37:14.402Z,1.15
2024-01-31T10:39:53.198Z,1.05
2024-01-31T10:42:52.859Z,0.95
2024-01-31T10:45:52.954Z,1.3
2024-01-31T10:48:53.213Z,1
2024-01-31T10:51:52.845Z,1.05
2024-01-31T10:54:53.157Z,1.2
2024-01-31T10:57:52.888Z,1.45
2024-01-31T11:00:53.111Z,1.25
2024-01-31T11:03:52.855Z,1.7
2024-01-31T11:06:53.603Z,1.6
2024-01-31T11:09:52.786Z,1
2024-01-31T11:12:52.812Z,0.9
2024-01-31T11:15:52.922Z,1.2
2024-01-31T11:18:53.190Z,1.15
2024-01-31T11:21:52.859Z,1.15
2024-01-31T11:24:52.866Z,1.25
2024-01-31T11:27:52.872Z,1.15
2024-01-31T11:30:53.025Z,1.35
2024-01-31T11:33:53.290Z,1.3
2024-01-31T11:36:52.922Z,1.05
2024-01-31T11:39:52.860Z,1.1
2024-01-31T11:42:52.991Z,1.05
2024-01-31T11:45:52.935Z,1.25
2024-01-31T11:48:53.332Z,0.95
2024-01-31T11:51:52.961Z,0.8
2024-01-31T11:54:52.949Z,1.15
2024-01-31T11:57:52.981Z,1.4
2024-01-31T12:00:53.078Z,1.95
2024-01-31T12:03:52.909Z,1.3
2024-01-31T12:06:53.195Z,1.25
2024-01-31T12:09:52.953Z,0.8
2024-01-31T12:12:52.946Z,0.95
2024-01-31T12:15:57.925Z,1.15
2024-01-31T12:18:53.341Z,1.25
2024-01-31T12:21:52.878Z,0.95
2024-01-31T12:24:53.038Z,0.85
2024-01-31T12:27:53.162Z,0.7
2024-01-31T12:30:52.954Z,0.9
2024-01-31T12:33:53.038Z,0.9
2024-01-31T12:36:52.965Z,1.15
2024-01-31T12:39:53.229Z,0.85
2024-01-31T12:42:53.293Z,0.7
2024-01-31T12:45:52.958Z,0.45
2024-01-31T12:48:53.275Z,0.85
2024-01-31T12:51:53.040Z,1.1
2024-01-31T12:54:52.992Z,1
2024-01-31T12:57:53.008Z,0.85
2024-01-31T13:00:53.073Z,1.05
2024-01-31T13:03:53.725Z,0.65
2024-01-31T13:06:53.360Z,1.15
2024-01-31T13:09:53.017Z,1.3
2024-01-31T13:12:52.967Z,1.3
2024-01-31T13:15:56.239Z,1.2
2024-01-31T13:18:53.561Z,1.25
2024-01-31T13:21:53.034Z,1.2
2024-01-31T13:24:53.034Z,0.85
2024-01-31T13:27:53.044Z,1.3
2024-01-31T13:30:53.003Z,1.4
2024-01-31T13:33:53.484Z,1.2
2024-01-31T13:36:53.071Z,1.35
2024-01-31T13:39:53.128Z,1.4
2024-01-31T13:42:53.050Z,1.4
2024-01-31T13:45:53.174Z,0.35
2024-01-31T13:48:53.535Z,0.5
2024-01-31T13:51:53.050Z,0.75
2024-01-31T13:54:53.004Z,1
2024-01-31T13:57:52.999Z,0.8
2024-01-31T14:00:53.085Z,0.65
2024-01-31T14:03:53.293Z,1.3
2024-01-31T14:06:53.361Z,0.75
2024-01-31T14:09:53.083Z,0.85
2024-01-31T14:12:53.042Z,0.65
2024-01-31T14:15:53.007Z,0.45
2024-01-31T14:18:53.110Z,0.3
2024-01-31T14:22:01.630Z,0.5
2024-01-31T14:24:53.089Z,0.25
2024-01-31T14:27:53.409Z,0.55
2024-01-31T14:30:53.067Z,0.65
2024-01-31T14:33:53.420Z,0.45
2024-01-31T14:36:53.168Z,0.5
2024-01-31T14:39:53.057Z,0.55
2024-01-31T14:42:53.167Z,0.6
2024-01-31T14:45:53.185Z,0.55
2024-01-31T14:48:53.621Z,0.3
2024-01-31T14:51:53.132Z,0.25
2024-01-31T14:54:53.114Z,0.6
2024-01-31T14:57:53.138Z,0.85
2024-01-31T15:00:53.218Z,0.2
2024-01-31T15:03:53.104Z,0.2
2024-01-31T15:06:53.216Z,0.1
2024-01-31T15:09:53.125Z,0.3
2024-01-31T15:12:53.175Z,0
2024-01-31T15:15:53.126Z,0.3
2024-01-31T15:18:53.554Z,0.2
2024-01-31T15:21:53.206Z,0.25
2024-01-31T15:24:53.086Z,0.3
2024-01-31T15:27:53.401Z,0.3
2024-01-31T15:30:53.256Z,0.5
2024-01-31T15:33:53.589Z,0.25
2024-01-31T15:36:53.137Z,0.15
2024-01-31T15:39:53.128Z,0.35
2024-01-31T15:42:53.152Z,0.3
2024-01-31T15:45:53.156Z,0.35
2024-01-31T15:48:53.541Z,0.4
2024-01-31T15:51:53.155Z,0.35
2024-01-31T15:54:53.500Z,0.65
2024-01-31T15:57:53.270Z,0.65
2024-01-31T16:00:54.225Z,0.55
2024-01-31T16:03:53.525Z,0.45
2024-01-31T16:06:53.284Z,0.45
2024-01-31T16:09:53.452Z,0.05
2024-01-31T16:12:53.258Z,0.3
2024-01-31T16:15:53.200Z,0.35
2024-01-31T16:18:53.722Z,0.4
2024-01-31T16:21:53.635Z,0.05
2024-01-31T16:24:53.170Z,0.25
2024-01-31T16:27:53.252Z,0.2
2024-01-31T16:30:53.236Z,0.1
2024-01-31T16:33:53.641Z,0.35
2024-01-31T16:36:53.219Z,0.3
2024-01-31T16:39:53.252Z,0.2
2024-01-31T16:42:53.219Z,0.2
2024-01-31T16:45:53.476Z,0.5
2024-01-31T16:48:53.993Z,0.5
2024-01-31T16:51:53.253Z,0.35
2024-01-31T16:54:53.230Z,0.4
2024-01-31T16:57:53.313Z,0.6
2024-01-31T17:00:53.297Z,0.6
2024-01-31T17:03:53.582Z,0.55
2024-01-31T17:06:53.184Z,0.65
2024-01-31T17:09:53.289Z,0.5
2024-01-31T17:12:53.307Z,0.6
2024-01-31T17:15:53.342Z,0.65
2024-01-31T17:18:53.721Z,0.75
2024-01-31T17:21:53.281Z,0.95
2024-01-31T17:24:53.295Z,0.75
2024-01-31T17:27:53.246Z,0.75
2024-01-31T17:30:53.293Z,0.65
2024-01-31T17:33:57.803Z,0.65
2024-01-31T17:36:53.285Z,0.65
2024-01-31T17:39:53.348Z,0.6
2024-01-31T17:42:53.368Z,0.75
2024-01-31T17:45:53.239Z,0.7
2024-01-31T17:48:53.395Z,0.5
2024-01-31T17:51:53.194Z,0.5
2024-01-31T17:54:53.247Z,0.75
2024-01-31T17:57:53.294Z,0.45
2024-01-31T18:00:53.354Z,0.25
2024-01-31T18:03:53.251Z,0.2
2024-01-31T18:06:53.318Z,0.45
2024-01-31T18:09:53.229Z,0.2
2024-01-31T18:12:53.306Z,0.05
2024-01-31T18:15:53.208Z,0.15
2024-01-31T18:18:53.359Z,0.3
2024-01-31T18:21:53.215Z,0.3
2024-01-31T18:24:53.306Z,0.25
2024-01-31T18:27:53.284Z,0.5
2024-01-31T18:30:53.236Z,0.55
2024-01-31T18:33:54.114Z,0.35
2024-01-31T18:36:53.327Z,0.5
2024-01-31T18:39:53.312Z,0.4
2024-01-31T18:42:53.276Z,0.45
2024-01-31T18:45:53.321Z,0.35
2024-01-31T18:48:53.533Z,0.4
2024-01-31T18:51:54.397Z,0.65
2024-01-31T18:54:53.289Z,0.45
2024-01-31T18:57:53.325Z,0.25
2024-01-31T19:00:53.774Z,0.15
2024-01-31T19:03:53.342Z,0.25
2024-01-31T19:06:53.393Z,0.2
2024-01-31T19:09:53.324Z,0.15
2024-01-31T19:12:53.367Z,0.35
2024-01-31T19:15:53.305Z,0.7
2024-01-31T19:18:54.103Z,0.3
2024-01-31T19:21:53.324Z,0.45
2024-01-31T19:24:53.308Z,0.25
2024-01-31T19:27:53.349Z,0.45
2024-01-31T19:30:53.371Z,0.5
2024-01-31T19:33:53.771Z,0.2
2024-01-31T19:36:53.368Z,0.3
2024-01-31T19:39:53.488Z,0.3
2024-01-31T19:42:53.405Z,0.65
2024-01-31T19:45:53.505Z,0.65
2024-01-31T19:48:53.799Z,0.8
2024-01-31T19:51:53.336Z,0.7
2024-01-31T19:54:53.427Z,0.45
2024-01-31T19:57:53.459Z,0.35
2024-01-31T20:00:53.390Z,0.3
2024-01-31T20:03:53.534Z,0.5
2024-01-31T20:06:53.705Z,0.45
2024-01-31T20:09:53.401Z,0.3
2024-01-31T20:12:53.489Z,0.55
2024-01-31T20:15:53.457Z,0.6
2024-01-31T20:18:53.580Z,0.45
2024-01-31T20:21:53.454Z,0.4
2024-01-31T20:24:53.428Z,0.8
2024-01-31T20:27:53.448Z,0.4
2024-01-31T20:30:53.311Z,0.4
2024-01-31T20:33:53.862Z,0.35
2024-01-31T20:36:53.485Z,0.25
2024-01-31T20:39:53.447Z,0.75
2024-01-31T20:42:53.429Z,1.05
2024-01-31T20:45:53.382Z,1.35
2024-01-31T20:48:53.753Z,1.35
2024-01-31T20:51:53.388Z,0.7
2024-01-31T20:54:53.438Z,1.2
2024-01-31T20:57:53.397Z,2.45
2024-01-31T21:00:53.461Z,1.75
2024-01-31T21:03:53.489Z,1.6
2024-01-31T21:06:53.845Z,1.5
2024-01-31T21:09:53.450Z,1.9
2024-01-31T21:12:53.384Z,2.4
2024-01-31T21:15:53.377Z,2.6
2024-01-31T21:18:53.757Z,2
2024-01-31T21:21:53.462Z,2
2024-01-31T21:24:53.508Z,2.6
2024-01-31T21:27:53.368Z,2.35
2024-01-31T21:30:53.445Z,2.75
2024-01-31T21:33:53.826Z,3.4
2024-01-31T21:36:53.511Z,1.95
2024-01-31T21:39:53.402Z,1.95
2024-01-31T21:42:53.520Z,2.1
2024-01-31T21:45:53.425Z,2.3
2024-01-31T21:48:53.890Z,2.4
2024-01-31T21:51:53.430Z,2.3
2024-01-31T21:54:53.413Z,3.65
2024-01-31T21:57:53.486Z,1.6
2024-01-31T22:00:53.489Z,3.5
2024-01-31T22:03:59.876Z,2.25
2024-01-31T22:06:53.562Z,2.3
2024-01-31T22:09:53.520Z,2.2
2024-01-31T22:12:53.535Z,1.65
2024-01-31T22:15:53.389Z,1.2
2024-01-31T22:18:53.983Z,2.1
2024-01-31T22:21:53.578Z,2.15
2024-01-31T22:24:53.504Z,2.35
2024-01-31T22:27:53.463Z,2.2
2024-01-31T22:30:53.566Z,2.25
2024-01-31T22:33:53.832Z,2.5
2024-01-31T22:36:53.483Z,1.2
2024-01-31T22:39:53.524Z,1.75
2024-01-31T22:42:53.420Z,2.35
2024-01-31T22:45:53.566Z,1.45
2024-01-31T22:48:53.775Z,1.8
2024-01-31T22:51:53.579Z,2
2024-01-31T22:55:00.419Z,2.1
2024-01-31T22:57:53.448Z,2.3
2024-01-31T23:00:53.599Z,3.55
2024-01-31T23:03:53.581Z,1.7
2024-01-31T23:06:53.728Z,2.55
2024-01-31T23:09:53.428Z,3.55
2024-01-31T23:12:53.472Z,3.45
2024-01-31T23:15:53.534Z,1.65
2024-01-31T23:18:53.865Z,2.55
2024-01-31T23:21:53.488Z,2.05
2024-01-31T23:24:53.502Z,2.75
2024-01-31T23:27:53.484Z,2.4
2024-01-31T23:30:53.542Z,3.6
2024-01-31T23:33:53.881Z,2.85
2024-01-31T23:36:53.588Z,2.1
2024-01-31T23:39:53.536Z,2.85
2024-01-31T23:42:53.473Z,2.6
2024-01-31T23:45:53.504Z,2.1
2024-01-31T23:48:53.895Z,3.4
2024-01-31T23:51:53.520Z,2.45
2024-01-31T23:54:53.489Z,2.6
2024-01-31T23:57:53.456Z,2.8
